Time;durP1;ratioP1;P1;durP2;ratioP2;P2;SDS_P1;SDS_P2;PMS_P1;PMS_P2;Temp;Humidity;BMP_temperature;BMP_pressure;BME280_temperature;BME280_humidity;BME280_pressure;Samples;Min_cycle;Max_cycle;Signal;HPM_P1;HPM_P2
2022/10/21 00:01:20;;;;;;;;;;;;;;;0.56;100.00;98674.91;7384520;19;19914;-50
2022/10/21 00:03:53;;;;;;;;;;;;;;;0.53;100.00;98680.13;7380769;19;20023;-51
2022/10/21 00:06:27;;;;;;;;;;;;;;;0.64;100.00;98667.06;7385257;19;20323;-57
2022/10/21 00:09:02;;;;;;;;;;;;;;;0.83;100.00;98666.75;7382419;19;20354;-64
2022/10/21 00:11:36;;;;;;;;;;;;;;;0.79;100.00;98662.50;7384698;19;19934;-52
2022/10/21 00:14:09;;;;;;;;;;;;;;;0.55;100.00;98667.16;7387118;19;20519;-49
2022/10/21 00:16:43;;;;;;;;;;;;;;;0.59;100.00;98663.66;7386189;19;19919;-51
2022/10/21 00:19:16;;;;;;;;;;;;;;;0.51;100.00;98658.59;7385724;19;20254;-51
2022/10/21 00:21:49;;;;;;;;;;;;;;;0.52;100.00;98646.50;7383064;19;19990;-66
2022/10/21 00:24:25;;;;;;;;;;;;;;;0.44;100.00;98641.44;7384463;19;19914;-52
2022/10/21 00:26:59;;;;;;;;;;;;;;;0.40;100.00;98633.75;7387594;19;19970;-49
2022/10/21 00:29:37;;;;;;;;;;;;;;;0.34;100.00;98631.22;7385928;19;19915;-51
2022/10/21 00:32:11;;;;;;;;;;;;;;;0.19;100.00;98614.19;7384341;19;19926;-48
2022/10/21 00:34:44;;;;;;;;;;;;;;;0.23;100.00;98609.81;7381461;19;19921;-53
2022/10/21 00:37:17;;;;;;;;;;;;;;;0.31;100.00;98603.66;7387043;19;20386;-53
2022/10/21 00:39:54;;;;;;;;;;;;;;;0.34;100.00;98602.78;7387314;19;19915;-57
2022/10/21 00:42:28;;;;;;;;;;;;;;;0.36;100.00;98603.63;7384858;19;19919;-52
2022/10/21 00:45:08;;;;;;;;;;;;;;;0.03;100.00;98610.09;7385441;19;19919;-51
2022/10/21 00:47:47;;;;;;;;;;;;;;;-0.12;100.00;98619.75;7382928;19;19915;-50
2022/10/21 00:50:26;;;;;;;;;;;;;;;0.22;100.00;98614.16;7385119;19;19929;-51
2022/10/21 00:53:01;;;;;;;;;;;;;;;0.36;100.00;98614.84;7382096;19;19915;-64
2022/10/21 00:55:39;;;;;;;;;;;;;;;0.31;100.00;98606.25;7383015;19;19918;-52
2022/10/21 00:58:13;;;;;;;;;;;;;;;0.38;100.00;98617.38;7380719;19;19936;-50
2022/10/21 01:00:46;;;;;;;;;;;;;;;0.08;100.00;98618.63;7386433;19;19946;-54
2022/10/21 01:03:19;;;;;;;;;;;;;;;0.02;100.00;98612.69;7384885;19;20351;-51
2022/10/21 01:06:16;;;;;;;;;;;;;;;0.35;100.00;98609.69;7384666;19;19946;-50
2022/10/21 01:08:49;;;;;;;;;;;;;;;0.25;100.00;98606.34;7383271;19;19915;-61
2022/10/21 01:11:25;;;;;;;;;;;;;;;0.23;100.00;98602.06;7384302;19;19919;-53
2022/10/21 01:14:19;;;;;;;;;;;;;;;-0.10;100.00;98605.94;7386262;19;20603;-54
2022/10/21 01:16:56;;;;;;;;;;;;;;;-0.07;100.00;98608.47;7384693;19;19911;-49
2022/10/21 01:19:50;;;;;;;;;;;;;;;-0.00;100.00;98604.09;7384462;19;19934;-54
2022/10/21 01:22:33;;;;;;;;;;;;;;;-0.41;100.00;98612.31;7385389;19;19922;-48
2022/10/21 01:25:31;;;;;;;;;;;;;;;-0.19;100.00;98606.03;7381029;19;20311;-53
2022/10/21 01:28:10;;;;;;;;;;;;;;;0.05;100.00;98600.56;7381470;19;19915;-54
2022/10/21 01:30:47;;;;;;;;;;;;;;;0.04;100.00;98604.03;7385934;19;19938;-50
2022/10/21 01:33:37;;;;;;;;;;;;;;;0.11;100.00;98608.25;7384359;19;19926;-49
2022/10/21 01:36:15;;;;;;;;;;;;;;;-0.10;100.00;98600.75;7381892;19;19915;-52
2022/10/21 01:38:50;;;;;;;;;;;;;;;-0.08;100.00;98603.31;7378326;19;19915;-66
2022/10/21 01:41:29;;;;;;;;;;;;;;;0.15;100.00;98603.88;7384991;19;19976;-49
2022/10/21 01:44:06;;;;;;;;;;;;;;;0.43;100.00;98589.72;7383285;19;19938;-63
2022/10/21 01:46:46;;;;;;;;;;;;;;;0.09;100.00;98593.66;7382733;19;19915;-53
2022/10/21 01:49:23;;;;;;;;;;;;;;;0.20;100.00;98592.63;7389398;19;20371;-50
2022/10/21 01:51:58;;;;;;;;;;;;;;;0.23;100.00;98582.22;7391702;19;20009;-52
2022/10/21 01:54:34;;;;;;;;;;;;;;;0.09;100.00;98578.97;7389717;19;19911;-53
2022/10/21 01:57:09;;;;;;;;;;;;;;;0.03;100.00;98584.25;7382051;19;19918;-51
2022/10/21 01:59:43;;;;;;;;;;;;;;;0.09;100.00;98575.53;7392718;19;19997;-49
2022/10/21 02:02:21;;;;;;;;;;;;;;;-0.07;100.00;98574.88;7387264;19;19938;-66
2022/10/21 02:04:56;;;;;;;;;;;;;;;-0.33;100.00;98571.75;7388359;19;19926;-52
2022/10/21 02:07:30;;;;;;;;;;;;;;;-0.33;100.00;98570.88;7390190;19;19926;-52
2022/10/21 02:10:03;;;;;;;;;;;;;;;-0.06;100.00;98570.56;7386647;19;19921;-49
2022/10/21 02:12:38;;;;;;;;;;;;;;;-0.06;100.00;98570.56;7392613;19;19922;-50
2022/10/21 02:15:16;;;;;;;;;;;;;;;-0.03;100.00;98568.78;7386857;19;20333;-50
2022/10/21 02:17:55;;;;;;;;;;;;;;;-0.23;100.00;98560.44;7389731;19;20320;-50
2022/10/21 02:20:30;;;;;;;;;;;;;;;-0.35;100.00;98552.81;7387749;19;19911;-66
2022/10/21 02:23:04;;;;;;;;;;;;;;;-0.30;100.00;98556.22;7391262;19;19942;-49
2022/10/21 02:25:39;;;;;;;;;;;;;;;-0.27;100.00;98548.41;7389912;19;20554;-50
2022/10/21 02:28:12;;;;;;;;;;;;;;;-0.25;100.00;98545.81;7386864;19;20027;-49
2022/10/21 02:30:51;;;;;;;;;;;;;;;-0.28;100.00;98538.13;7392427;19;20275;-52
2022/10/21 02:33:30;;;;;;;;;;;;;;;-0.43;100.00;98526.22;7386374;19;20305;-51
2022/10/21 02:36:09;;;;;;;;;;;;;;;-0.40;100.00;98531.34;7387653;19;19911;-49
2022/10/21 02:38:46;;;;;;;;;;;;;;;-0.58;100.00;98531.56;7385836;19;19921;-48
2022/10/21 02:41:22;;;;;;;;;;;;;;;-0.62;100.00;98537.63;7389831;19;20267;-48
2022/10/21 02:43:59;;;;;;;;;;;;;;;-0.71;100.00;98545.50;7384660;19;19915;-66
2022/10/21 02:46:37;;;;;;;;;;;;;;;-0.61;100.00;98539.34;7387502;19;19925;-50
2022/10/21 02:49:13;;;;;;;;;;;;;;;-0.58;100.00;98533.28;7388903;19;19911;-49
2022/10/21 02:51:51;;;;;;;;;;;;;;;-0.59;100.00;98540.19;7388765;19;21109;-52
2022/10/21 02:54:24;;;;;;;;;;;;;;;-0.56;100.00;98531.53;7389482;19;20354;-49
2022/10/21 02:56:57;;;;;;;;;;;;;;;-0.61;100.00;98528.16;7379051;19;19910;-54
2022/10/21 02:59:30;;;;;;;;;;;;;;;-1.02;100.00;98538.03;7388179;19;19926;-48
2022/10/21 03:02:04;;;;;;;;;;;;;;;-0.62;100.00;98527.31;7385068;19;19941;-53
2022/10/21 03:04:40;;;;;;;;;;;;;;;-0.61;100.00;98531.59;7384056;19;19967;-50
2022/10/21 03:07:13;;;;;;;;;;;;;;;-0.51;100.00;98522.88;7387770;19;19936;-49
2022/10/21 03:09:47;;;;;;;;;;;;;;;-0.64;100.00;98528.19;7383088;19;19994;-51
2022/10/21 03:12:20;;;;;;;;;;;;;;;-0.97;100.00;98539.69;7389208;19;19915;-51
2022/10/21 03:14:53;;;;;;;;;;;;;;;-0.89;100.00;98525.03;7390741;19;19907;-49
2022/10/21 03:17:27;;;;;;;;;;;;;;;-0.66;100.00;98514.44;7388781;19;19923;-49
2022/10/21 03:20:02;;;;;;;;;;;;;;;-0.95;100.00;98513.88;7390544;19;20306;-51
2022/10/21 03:22:36;;;;;;;;;;;;;;;-0.79;100.00;98507.72;7382529;19;19914;-50
2022/10/21 03:25:09;;;;;;;;;;;;;;;-0.78;100.00;98509.41;7386248;19;19940;-49
2022/10/21 03:27:44;;;;;;;;;;;;;;;-0.61;100.00;98494.59;7387538;19;20378;-52
2022/10/21 03:30:17;;;;;;;;;;;;;;;-0.94;100.00;98500.97;7387782;19;19919;-49
2022/10/21 03:32:50;;;;;;;;;;;;;;;-0.84;100.00;98494.84;7390176;19;19922;-48
2022/10/21 03:35:26;;;;;;;;;;;;;;;-0.89;100.00;98493.19;7382393;19;19911;-51
2022/10/21 03:38:00;;;;;;;;;;;;;;;-0.63;100.00;98488.59;7388481;19;19934;-51
2022/10/21 03:40:35;;;;;;;;;;;;;;;-0.84;100.00;98487.09;7388397;19;19921;-51
2022/10/21 03:43:08;;;;;;;;;;;;;;;-0.74;100.00;98483.56;7388351;19;20319;-48
2022/10/21 03:45:41;;;;;;;;;;;;;;;-0.84;100.00;98475.91;7389315;19;19911;-49
2022/10/21 03:48:14;;;;;;;;;;;;;;;-0.71;100.00;98480.06;7382742;19;19935;-50
2022/10/21 03:50:50;;;;;;;;;;;;;;;-0.68;100.00;98475.72;7387827;19;20007;-51
2022/10/21 03:53:23;;;;;;;;;;;;;;;-0.80;100.00;98473.28;7387829;19;20242;-49
2022/10/21 03:55:56;;;;;;;;;;;;;;;-0.75;100.00;98470.66;7388664;19;19938;-49
2022/10/21 03:58:30;;;;;;;;;;;;;;;-0.72;100.00;98463.72;7384361;19;19952;-56
2022/10/21 04:01:06;;;;;;;;;;;;;;;-0.73;100.00;98462.00;7380374;19;20363;-52
2022/10/21 04:03:39;;;;;;;;;;;;;;;-1.20;100.00;98471.97;7387057;19;19998;-49
2022/10/21 04:06:15;;;;;;;;;;;;;;;-0.76;100.00;98474.94;7385915;19;19925;-50
2022/10/21 04:08:48;;;;;;;;;;;;;;;-0.70;100.00;98474.91;7387770;19;20747;-62
2022/10/21 04:11:21;;;;;;;;;;;;;;;-0.84;100.00;98471.59;7386640;19;19914;-48
2022/10/21 04:13:55;;;;;;;;;;;;;;;-0.86;100.00;98468.19;7380736;19;19974;-50
2022/10/21 04:16:29;;;;;;;;;;;;;;;-1.01;100.00;98473.50;7388186;19;19971;-49
2022/10/21 04:19:02;;;;;;;;;;;;;;;-0.76;100.00;98464.63;7385800;19;20352;-54
2022/10/21 04:21:38;;;;;;;;;;;;;;;-0.84;100.00;98460.41;7386920;19;21010;-56
2022/10/21 04:24:11;;;;;;;;;;;;;;;-1.03;100.00;98452.03;7386512;19;19915;-52
2022/10/21 04:26:44;;;;;;;;;;;;;;;-0.81;100.00;98458.66;7381777;19;19918;-48
2022/10/21 04:29:18;;;;;;;;;;;;;;;-0.93;100.00;98453.66;7386545;19;19944;-52
2022/10/21 04:31:51;;;;;;;;;;;;;;;-0.96;100.00;98455.41;7385705;19;19922;-56
2022/10/21 04:34:24;;;;;;;;;;;;;;;-1.14;100.00;98463.34;7384409;19;19940;-52
2022/10/21 04:37:00;;;;;;;;;;;;;;;-0.94;100.00;98453.66;7384856;19;19928;-51
2022/10/21 04:39:33;;;;;;;;;;;;;;;-1.10;100.00;98450.38;7381877;19;20334;-49
2022/10/21 04:42:06;;;;;;;;;;;;;;;-0.98;100.00;98452.84;7386811;19;19967;-51
2022/10/21 04:44:40;;;;;;;;;;;;;;;-1.30;100.00;98447.16;7383035;19;19911;-50
2022/10/21 04:47:14;;;;;;;;;;;;;;;-1.40;100.00;98439.50;7383511;19;19935;-51
2022/10/21 04:49:47;;;;;;;;;;;;;;;-1.25;100.00;98432.50;7386497;19;20295;-50
2022/10/21 04:52:23;;;;;;;;;;;;;;;-1.47;100.00;98433.56;7378809;19;19914;-55
2022/10/21 04:54:56;;;;;;;;;;;;;;;-1.35;100.00;98440.34;7382589;19;19917;-55
2022/10/21 04:57:32;;;;;;;;;;;;;;;-0.90;100.00;98429.53;7380606;19;19922;-61
2022/10/21 05:00:05;;;;;;;;;;;;;;;-0.82;100.00;98428.56;7386004;19;19923;-50
2022/10/21 05:02:38;;;;;;;;;;;;;;;-0.83;100.00;98423.44;7384804;19;19915;-52
2022/10/21 05:05:12;;;;;;;;;;;;;;;-0.87;100.00;98424.34;7377139;19;20323;-53
2022/10/21 05:07:48;;;;;;;;;;;;;;;-0.81;100.00;98425.13;7382000;19;19974;-51
2022/10/21 05:10:22;;;;;;;;;;;;;;;-0.86;100.00;98424.28;7385017;19;19935;-52
2022/10/21 05:12:55;;;;;;;;;;;;;;;-0.75;100.00;98435.34;7384079;19;19919;-54
2022/10/21 05:15:29;;;;;;;;;;;;;;;-1.00;100.00;98431.38;7382996;19;19931;-54
2022/10/21 05:18:03;;;;;;;;;;;;;;;-1.24;100.00;98433.31;7377127;19;19919;-49
2022/10/21 05:20:36;;;;;;;;;;;;;;;-1.34;100.00;98439.47;7386058;19;19939;-51
2022/10/21 05:23:12;;;;;;;;;;;;;;;-0.99;100.00;98435.66;7386576;19;19925;-61
2022/10/21 05:25:45;;;;;;;;;;;;;;;-0.87;100.00;98434.66;7388938;19;19910;-52
2022/10/21 05:28:19;;;;;;;;;;;;;;;-0.74;100.00;98431.91;7388314;19;19911;-51
2022/10/21 05:30:52;;;;;;;;;;;;;;;-0.55;100.00;98428.22;7378150;19;21199;-48
2022/10/21 05:33:25;;;;;;;;;;;;;;;-0.56;100.00;98420.50;7389470;19;19962;-55
2022/10/21 05:36:05;;;;;;;;;;;;;;;-0.55;100.00;98419.59;7389604;19;20359;-49
2022/10/21 05:38:41;;;;;;;;;;;;;;;-0.56;100.00;98420.50;7391730;19;19942;-49
2022/10/21 05:41:15;;;;;;;;;;;;;;;-0.29;100.00;98425.28;7391627;19;20353;-50
2022/10/21 05:43:52;;;;;;;;;;;;;;;-0.13;100.00;98427.63;7386214;19;20244;-48
2022/10/21 05:46:26;;;;;;;;;;;;;;;-0.17;100.00;98430.28;7388769;19;20380;-50
2022/10/21 05:48:59;;;;;;;;;;;;;;;-0.17;100.00;98425.97;7384300;19;19915;-66
2022/10/21 05:51:32;;;;;;;;;;;;;;;-0.12;100.00;98423.31;7385920;19;19914;-59
2022/10/21 05:54:11;;;;;;;;;;;;;;;0.21;100.00;98421.06;7386594;19;20434;-50
2022/10/21 05:56:44;;;;;;;;;;;;;;;0.11;100.00;98406.59;7384660;19;19931;-50
2022/10/21 05:59:18;;;;;;;;;;;;;;;0.04;100.00;98394.63;7386195;19;19923;-57
2022/10/21 06:01:51;;;;;;;;;;;;;;;0.05;100.00;98411.84;7376755;19;19975;-49
2022/10/21 06:04:28;;;;;;;;;;;;;;;0.10;100.00;98433.31;7384342;19;19911;-52
2022/10/21 06:07:01;;;;;;;;;;;;;;;0.15;100.00;98438.41;7383877;19;19943;-48
2022/10/21 06:09:37;;;;;;;;;;;;;;;0.20;100.00;98440.03;7386492;19;19931;-49
2022/10/21 06:12:10;;;;;;;;;;;;;;;0.16;100.00;98440.97;7391661;19;19923;-48
2022/10/21 06:14:43;;;;;;;;;;;;;;;0.02;100.00;98452.41;7384179;19;20304;-48
2022/10/21 06:17:16;;;;;;;;;;;;;;;0.35;100.00;98447.56;7391102;19;19919;-48
2022/10/21 06:19:50;;;;;;;;;;;;;;;0.18;100.00;98451.28;7391431;19;19915;-53
2022/10/21 06:22:23;;;;;;;;;;;;;;;0.14;100.00;98457.38;7388868;19;19915;-49
2022/10/21 06:24:59;;;;;;;;;;;;;;;0.38;100.00;98439.75;7387536;19;20263;-48
2022/10/21 06:27:32;;;;;;;;;;;;;;;0.10;100.00;98441.09;7383470;19;19931;-49
2022/10/21 06:30:05;;;;;;;;;;;;;;;0.33;100.00;98448.47;7391203;19;19922;-48
2022/10/21 06:32:39;;;;;;;;;;;;;;;0.37;100.00;98445.81;7384108;19;19923;-52
2022/10/21 06:35:12;;;;;;;;;;;;;;;0.40;100.00;98439.72;7383499;19;19914;-49
2022/10/21 06:37:45;;;;;;;;;;;;;;;0.40;100.00;98438.00;7388003;19;19947;-49
2022/10/21 06:40:21;;;;;;;;;;;;;;;0.35;100.00;98434.63;7383099;19;19937;-66
2022/10/21 06:42:55;;;;;;;;;;;;;;;0.51;100.00;98438.69;7387931;19;19919;-49
2022/10/21 06:45:29;;;;;;;;;;;;;;;0.55;100.00;98442.94;7387794;19;19914;-50
2022/10/21 06:48:03;;;;;;;;;;;;;;;0.55;100.00;98447.22;7382271;19;21132;-52
2022/10/21 06:50:36;;;;;;;;;;;;;;;0.60;100.00;98437.66;7388607;19;19941;-53
2022/10/21 06:53:10;;;;;;;;;;;;;;;0.66;100.00;98438.41;7384232;19;19975;-56
2022/10/21 06:55:45;;;;;;;;;;;;;;;0.75;100.00;98437.41;7385536;19;19922;-49
2022/10/21 06:58:19;;;;;;;;;;;;;;;0.76;100.00;98429.59;7386558;19;19915;-49
2022/10/21 07:00:52;;;;;;;;;;;;;;;0.77;100.00;98440.81;7384834;19;19921;-53
2022/10/21 07:03:25;;;;;;;;;;;;;;;0.90;100.00;98432.78;7386060;19;19927;-56
2022/10/21 07:06:03;;;;;;;;;;;;;;;0.83;100.00;98443.28;7383424;19;19915;-66
2022/10/21 07:08:37;;;;;;;;;;;;;;;0.89;100.00;98431.09;7389319;19;19974;-53
2022/10/21 07:11:13;;;;;;;;;;;;;;;1.04;100.00;98423.03;7387126;19;19926;-53
2022/10/21 07:13:47;;;;;;;;;;;;;;;1.15;100.00;98428.84;7385031;19;19931;-49
2022/10/21 07:16:21;;;;;;;;;;;;;;;1.17;100.00;98423.66;7388902;19;19919;-49
2022/10/21 07:18:55;;;;;;;;;;;;;;;1.02;100.00;98419.59;7380651;19;19933;-49
2022/10/21 07:21:29;;;;;;;;;;;;;;;1.05;100.00;98416.13;7386172;19;19927;-51
2022/10/21 07:24:02;;;;;;;;;;;;;;;1.06;100.00;98423.88;7385332;19;19919;-65
2022/10/21 07:26:39;;;;;;;;;;;;;;;1.11;100.00;98427.22;7386019;19;19907;-55
2022/10/21 07:29:12;;;;;;;;;;;;;;;1.16;100.00;98420.19;7390232;19;19947;-52
2022/10/21 07:31:45;;;;;;;;;;;;;;;1.36;100.00;98412.03;7382770;19;20334;-53
2022/10/21 07:34:18;;;;;;;;;;;;;;;1.60;100.00;98404.59;7385046;19;19907;-50
2022/10/21 07:36:53;;;;;;;;;;;;;;;1.85;100.00;98397.13;7385594;19;19914;-66
2022/10/21 07:39:28;;;;;;;;;;;;;;;2.14;100.00;98393.88;7386484;19;20338;-52
2022/10/21 07:42:08;;;;;;;;;;;;;;;2.74;100.00;98387.13;7386826;19;19934;-52
2022/10/21 07:44:47;;;;;;;;;;;;;;;2.79;100.00;98390.44;7383875;19;19918;-53
2022/10/21 07:47:20;;;;;;;;;;;;;;;2.82;100.00;98382.59;7381656;19;20327;-52
2022/10/21 07:49:53;;;;;;;;;;;;;;;3.07;100.00;98375.84;7380839;19;19929;-50
2022/10/21 07:52:26;;;;;;;;;;;;;;;3.06;100.00;98374.13;7387803;19;20302;-52
2022/10/21 07:55:00;;;;;;;;;;;;;;;3.40;100.00;98369.69;7385923;19;19943;-50
2022/10/21 07:57:36;;;;;;;;;;;;;;;3.24;100.00;98373.59;7385481;19;20835;-50
2022/10/21 08:00:10;;;;;;;;;;;;;;;3.27;100.00;98361.38;7386349;19;19928;-50
2022/10/21 08:02:46;;;;;;;;;;;;;;;3.59;100.00;98350.03;7377845;19;19915;-52
2022/10/21 08:05:20;;;;;;;;;;;;;;;3.33;100.00;98349.97;7385470;19;19911;-57
2022/10/21 08:07:53;;;;;;;;;;;;;;;3.36;100.00;98368.91;7386614;19;19919;-64
2022/10/21 08:10:26;;;;;;;;;;;;;;;3.38;100.00;98342.84;7385038;19;19919;-53
2022/10/21 08:13:02;;;;;;;;;;;;;;;3.51;100.00;98339.00;7387192;19;19918;-49
2022/10/21 08:15:35;;;;;;;;;;;;;;;3.74;100.00;98344.34;7380007;19;19940;-53
2022/10/21 08:18:08;;;;;;;;;;;;;;;3.69;100.00;98343.66;7386550;19;19923;-55
2022/10/21 08:20:44;;;;;;;;;;;;;;;3.76;100.00;98340.81;7387004;19;20320;-49
2022/10/21 08:23:18;;;;;;;;;;;;;;;3.88;100.00;98332.66;7385351;19;19959;-53
2022/10/21 08:25:55;;;;;;;;;;;;;;;3.84;100.00;98333.63;7384239;19;19919;-54
2022/10/21 08:28:31;;;;;;;;;;;;;;;3.91;100.00;98327.34;7379202;19;19919;-56
2022/10/21 08:31:11;;;;;;;;;;;;;;;3.98;100.00;98317.63;7385154;19;20258;-54
2022/10/21 08:33:45;;;;;;;;;;;;;;;4.04;100.00;98318.25;7378072;19;19923;-54
2022/10/21 08:36:20;;;;;;;;;;;;;;;3.98;100.00;98307.22;7381741;19;19914;-53
2022/10/21 08:38:53;;;;;;;;;;;;;;;4.29;100.00;98307.88;7381340;19;19930;-65
2022/10/21 08:41:32;;;;;;;;;;;;;;;4.26;100.00;98323.59;7383950;19;21095;-54
2022/10/21 08:44:11;;;;;;;;;;;;;;;4.35;100.00;98307.69;7383948;19;19918;-52
2022/10/21 08:46:46;;;;;;;;;;;;;;;4.40;100.00;98308.38;7381543;19;19915;-59
2022/10/21 08:49:22;;;;;;;;;;;;;;;4.54;100.00;98298.34;7383680;19;19957;-53
2022/10/21 08:51:57;;;;;;;;;;;;;;;4.71;100.00;98296.84;7379389;19;19923;-55
2022/10/21 08:54:33;;;;;;;;;;;;;;;4.99;100.00;98286.28;7382230;19;19915;-55
2022/10/21 08:57:06;;;;;;;;;;;;;;;4.93;100.00;98294.31;7377263;19;19962;-66
2022/10/21 08:59:42;;;;;;;;;;;;;;;5.18;100.00;98282.06;7382403;19;20099;-52
2022/10/21 09:02:31;;;;;;;;;;;;;;;5.41;100.00;98282.03;7378321;19;19915;-56
2022/10/21 09:05:16;;;;;;;;;;;;;;;5.65;100.00;98273.28;7381338;19;19919;-54
2022/10/21 09:07:58;;;;;;;;;;;;;;;5.48;100.00;98269.63;7377670;19;19927;-59
2022/10/21 09:10:38;;;;;;;;;;;;;;;5.68;100.00;98261.84;7383834;19;19930;-60
2022/10/21 09:13:17;;;;;;;;;;;;;;;5.94;100.00;98262.50;7381535;19;19930;-68
2022/10/21 09:16:00;;;;;;;;;;;;;;;5.98;100.00;98258.00;7385012;19;20333;-53
2022/10/21 09:18:46;;;;;;;;;;;;;;;6.05;100.00;98257.72;7378324;19;19923;-58
2022/10/21 09:21:24;;;;;;;;;;;;;;;6.31;100.00;98257.50;7386483;19;20122;-50
2022/10/21 09:24:02;;;;;;;;;;;;;;;6.19;100.00;98244.94;7380865;19;20303;-50
2022/10/21 09:26:42;;;;;;;;;;;;;;;6.04;100.00;98242.97;7384233;19;20035;-51
2022/10/21 09:29:31;;;;;;;;;;;;;;;6.41;100.00;98244.88;7382314;19;19925;-61
2022/10/21 09:32:15;;;;;;;;;;;;;;;7.54;100.00;98236.13;7387474;19;20363;-55
2022/10/21 09:34:55;;;;;;;;;;;;;;;7.57;100.00;98222.06;7384432;19;19911;-54
2022/10/21 09:37:31;;;;;;;;;;;;;;;7.10;100.00;98221.69;7386947;19;19926;-54
2022/10/21 09:40:09;;;;;;;;;;;;;;;6.92;100.00;98225.13;7382132;19;19922;-53
2022/10/21 09:42:42;;;;;;;;;;;;;;;7.05;100.00;98222.81;7387037;19;19918;-53
2022/10/21 09:45:22;;;;;;;;;;;;;;;7.10;100.00;98213.84;7384635;19;19946;-65
2022/10/21 09:48:01;;;;;;;;;;;;;;;7.24;100.00;98219.28;7386886;19;19919;-50
2022/10/21 09:50:34;;;;;;;;;;;;;;;7.76;100.00;98220.28;7383275;19;19974;-64
2022/10/21 09:53:11;;;;;;;;;;;;;;;7.61;100.00;98211.38;7387511;19;19914;-52
2022/10/21 09:55:45;;;;;;;;;;;;;;;7.42;100.00;98212.31;7383560;19;19935;-55
2022/10/21 09:58:29;;;;;;;;;;;;;;;7.34;100.00;98210.09;7381649;19;19915;-56
2022/10/21 10:01:02;;;;;;;;;;;;;;;7.44;100.00;98200.88;7385980;19;20219;-55
2022/10/21 10:03:39;;;;;;;;;;;;;;;7.96;100.00;98191.31;7380377;19;19937;-51
2022/10/21 10:06:12;;;;;;;;;;;;;;;7.71;100.00;98191.69;7384665;19;19915;-51
2022/10/21 10:08:47;;;;;;;;;;;;;;;7.26;100.00;98187.81;7382691;19;19938;-59
2022/10/21 10:11:23;;;;;;;;;;;;;;;6.95;100.00;98183.16;7393092;19;19928;-51
2022/10/21 10:13:58;;;;;;;;;;;;;;;7.00;100.00;98181.22;7392371;19;19922;-54
2022/10/21 10:16:33;;;;;;;;;;;;;;;6.90;100.00;98177.31;7388516;19;20181;-53
2022/10/21 10:19:21;;;;;;;;;;;;;;;6.90;100.00;98172.09;7390450;19;20373;-49
2022/10/21 10:22:10;;;;;;;;;;;;;;;7.04;100.00;98171.44;7389787;19;20788;-53
2022/10/21 10:24:44;;;;;;;;;;;;;;;6.81;100.00;98172.50;7387903;19;19923;-67
2022/10/21 10:27:19;;;;;;;;;;;;;;;7.20;100.00;98173.25;7389404;19;20312;-53
2022/10/21 10:29:56;;;;;;;;;;;;;;;7.07;100.00;98174.75;7390908;19;19914;-54
2022/10/21 10:32:30;;;;;;;;;;;;;;;7.63;100.00;98169.44;7386838;19;19978;-52
2022/10/21 10:35:07;;;;;;;;;;;;;;;7.22;100.00;98168.81;7389207;19;19918;-52
2022/10/21 10:37:42;;;;;;;;;;;;;;;7.25;100.00;98168.66;7385708;19;19921;-68
2022/10/21 10:40:24;;;;;;;;;;;;;;;7.60;100.00;98175.66;7391231;19;20433;-57
2022/10/21 10:43:00;;;;;;;;;;;;;;;7.93;100.00;98171.38;7388753;19;19925;-67
2022/10/21 10:45:34;;;;;;;;;;;;;;;8.30;100.00;98160.75;7391425;19;19919;-54
2022/10/21 10:48:08;;;;;;;;;;;;;;;8.32;100.00;98161.50;7389858;19;19966;-52
2022/10/21 10:50:53;;;;;;;;;;;;;;;8.21;100.00;98158.59;7383971;19;19915;-55
2022/10/21 10:53:31;;;;;;;;;;;;;;;8.41;100.00;98151.50;7391374;19;19918;-51
2022/10/21 10:56:10;;;;;;;;;;;;;;;8.53;100.00;98156.09;7385509;19;19919;-58
2022/10/21 10:58:47;;;;;;;;;;;;;;;8.51;100.00;98155.31;7389356;19;19919;-54
2022/10/21 11:01:25;;;;;;;;;;;;;;;8.48;100.00;98150.22;7384186;19;19915;-53
2022/10/21 11:04:01;;;;;;;;;;;;;;;8.84;100.00;98151.75;7391110;19;20255;-52
2022/10/21 11:06:41;;;;;;;;;;;;;;;8.67;100.00;98148.34;7384245;19;20334;-51
2022/10/21 11:09:15;;;;;;;;;;;;;;;8.86;100.00;98147.25;7389510;19;19938;-54
2022/10/21 11:11:50;;;;;;;;;;;;;;;8.68;100.00;98144.78;7387278;19;20286;-67
2022/10/21 11:14:24;;;;;;;;;;;;;;;8.58;100.00;98141.81;7388801;19;19925;-54
2022/10/21 11:17:04;;;;;;;;;;;;;;;8.75;100.00;98140.91;7388032;19;19919;-54
2022/10/21 11:19:41;;;;;;;;;;;;;;;8.52;100.00;98141.31;7386251;19;19926;-57
2022/10/21 11:22:27;;;;;;;;;;;;;;;8.53;100.00;98135.94;7385933;19;20556;-54
2022/10/21 11:25:03;;;;;;;;;;;;;;;8.66;100.00;98120.41;7385902;19;19923;-52
2022/10/21 11:27:48;;;;;;;;;;;;;;;8.74;100.00;98116.44;7386257;19;20271;-55
2022/10/21 11:30:23;;;;;;;;;;;;;;;9.02;100.00;98105.31;7384440;19;20009;-59
2022/10/21 11:33:08;;;;;;;;;;;;;;;8.76;100.00;98103.25;7390580;19;19918;-52
2022/10/21 11:35:52;;;;;;;;;;;;;;;8.74;100.00;98100.72;7390552;19;20505;-53
2022/10/21 11:38:35;;;;;;;;;;;;;;;8.96;100.00;98097.78;7387924;19;20357;-55
2022/10/21 11:41:11;;;;;;;;;;;;;;;9.04;100.00;98088.53;7388789;19;19938;-53
2022/10/21 11:43:51;;;;;;;;;;;;;;;9.16;100.00;98081.78;7389678;19;20026;-54
2022/10/21 11:46:29;;;;;;;;;;;;;;;9.05;100.00;98077.13;7387617;19;19925;-56
2022/10/21 11:49:19;;;;;;;;;;;;;;;9.38;100.00;98077.00;7390064;19;19919;-53
2022/10/21 11:51:59;;;;;;;;;;;;;;;9.72;100.00;98071.50;7389452;19;19915;-56
2022/10/21 11:54:42;;;;;;;;;;;;;;;9.18;100.00;98065.00;7387990;19;19922;-53
2022/10/21 11:57:20;;;;;;;;;;;;;;;9.15;100.00;98064.34;7385716;19;19921;-52
2022/10/21 12:00:00;;;;;;;;;;;;;;;9.54;100.00;98054.16;7385570;19;19911;-55
2022/10/21 12:02:44;;;;;;;;;;;;;;;9.21;100.00;98054.34;7385985;19;19918;-53
2022/10/21 12:05:23;;;;;;;;;;;;;;;9.34;100.00;98055.31;7383255;19;19910;-68
2022/10/21 12:08:01;;;;;;;;;;;;;;;9.21;100.00;98059.59;7387390;19;19922;-55
2022/10/21 12:10:40;;;;;;;;;;;;;;;9.20;100.00;98060.53;7387883;19;19918;-58
2022/10/21 12:13:18;;;;;;;;;;;;;;;8.89;100.00;98067.59;7388218;19;19915;-64
2022/10/21 12:15:53;;;;;;;;;;;;;;;8.98;100.00;98060.06;7384209;19;19996;-51
2022/10/21 12:18:28;;;;;;;;;;;;;;;9.20;100.00;98059.66;7384635;19;19918;-55
2022/10/21 12:21:02;;;;;;;;;;;;;;;9.26;100.00;98040.97;7385755;19;19915;-51
2022/10/21 12:23:36;;;;;;;;;;;;;;;9.08;100.00;98034.97;7374821;19;20054;-56
2022/10/21 12:26:20;;;;;;;;;;;;;;;9.43;100.00;98036.44;7381899;19;19923;-57
2022/10/21 12:29:01;;;;;;;;;;;;;;;9.33;100.00;98021.31;7375571;19;19983;-51
2022/10/21 12:31:44;;;;;;;;;;;;;;;8.85;100.00;98021.50;7381631;19;19927;-54
2022/10/21 12:34:18;;;;;;;;;;;;;;;9.07;100.00;98008.81;7379476;19;19950;-53
2022/10/21 12:36:53;;;;;;;;;;;;;;;8.77;100.00;98011.41;7382943;19;19911;-54
2022/10/21 12:39:41;;;;;;;;;;;;;;;9.26;100.00;98022.59;7385388;19;19997;-58
2022/10/21 12:42:21;;;;;;;;;;;;;;;8.85;100.00;98018.88;7385229;19;19915;-53
2022/10/21 12:44:56;;;;;;;;;;;;;;;9.22;100.00;98014.03;7377313;19;20347;-60
2022/10/21 12:47:31;;;;;;;;;;;;;;;9.13;100.00;98030.31;7382676;19;19925;-51
2022/10/21 12:50:12;;;;;;;;;;;;;;;8.88;100.00;98013.44;7387451;19;21361;-55
2022/10/21 12:52:46;;;;;;;;;;;;;;;8.81;100.00;98004.22;7382473;19;20323;-57
2022/10/21 12:55:27;;;;;;;;;;;;;;;8.87;100.00;97999.50;7382241;19;20346;-51
2022/10/21 12:58:07;;;;;;;;;;;;;;;8.89;100.00;97999.41;7379324;19;19918;-53
2022/10/21 13:00:55;;;;;;;;;;;;;;;8.84;100.00;98004.03;7383636;19;19915;-53
2022/10/21 13:03:48;;;;;;;;;;;;;;;8.66;100.00;98005.06;7383664;19;19915;-54
2022/10/21 13:06:22;;;;;;;;;;;;;;;8.90;100.00;98012.44;7375217;19;19923;-50
2022/10/21 13:09:00;;;;;;;;;;;;;;;8.77;100.00;98018.44;7383331;19;20318;-57
2022/10/21 13:11:44;;;;;;;;;;;;;;;8.75;100.00;98015.06;7381303;19;19921;-66
2022/10/21 13:14:32;;;;;;;;;;;;;;;8.87;100.00;98015.22;7381842;19;19943;-57
2022/10/21 13:17:20;;;;;;;;;;;;;;;8.98;100.00;98006.75;7378977;19;19914;-56
2022/10/21 13:19:57;;;;;;;;;;;;;;;8.72;100.00;98010.00;7385393;19;19914;-52
2022/10/21 13:22:39;;;;;;;;;;;;;;;8.66;100.00;98012.94;7380011;19;19922;-55
2022/10/21 13:25:25;;;;;;;;;;;;;;;8.55;100.00;98012.69;7380848;19;19919;-51
2022/10/21 13:27:59;;;;;;;;;;;;;;;8.49;100.00;98005.19;7382937;19;19914;-55
2022/10/21 13:30:33;;;;;;;;;;;;;;;8.72;100.00;98005.59;7381154;19;19919;-62